Time;durP1;ratioP1;P1;durP2;ratioP2;P2;SDS_P1;SDS_P2;PMS_P1;PMS_P2;Temp;Humidity;BMP_temperature;BMP_pressure;BME280_temperature;BME280_humidity;BME280_pressure;Samples;Min_cycle;Max_cycle;Signal;HPM_P1;HPM_P2
2022/01/13 00:00:29;;;;;;;36.08;17.80;;;;;;;;;;4932107;29;20378;-74
2022/01/13 00:02:55;;;;;;;37.40;17.65;;;;;;;;;;4932815;29;20046;-74
2022/01/13 00:05:27;;;;;;;36.10;18.55;;;;;;;;;;4930548;29;20666;-74
2022/01/13 00:07:58;;;;;;;40.88;18.85;;;;;;;;;;4914477;29;20032;-74
2022/01/13 00:10:27;;;;;;;30.52;16.13;;;;;;;;;;4896763;29;20051;-74
2022/01/13 00:13:07;;;;;;;34.97;17.65;;;;;;;;;;4914133;29;20541;-75
2022/01/13 00:15:51;;;;;;;36.58;19.15;;;;;;;;;;4913575;29;20051;-73
2022/01/13 00:18:37;;;;;;;35.25;17.42;;;;;;;;;;4914355;29;20055;-74
2022/01/13 00:24:03;;;;;;;38.70;19.40;;;;;;;;;;4881764;29;20055;-74
2022/01/13 00:26:32;;;;;;;39.13;18.20;;;;;;;;;;4913523;29;20402;-74
2022/01/13 00:29:01;;;;;;;38.00;19.65;;;;;;;;;;4913317;29;20040;-74
2022/01/13 00:31:31;;;;;;;39.88;19.80;;;;;;;;;;4914104;29;20383;-74
2022/01/13 00:33:59;;;;;;;38.17;18.60;;;;;;;;;;4913687;29;20044;-73
2022/01/13 00:36:28;;;;;;;34.03;18.15;;;;;;;;;;4914144;29;20391;-74
2022/01/13 00:38:55;;;;;;;32.20;16.85;;;;;;;;;;4896747;29;20043;-74
2022/01/13 00:41:23;;;;;;;31.70;17.33;;;;;;;;;;4913724;29;20482;-74
2022/01/13 00:43:49;;;;;;;30.42;16.85;;;;;;;;;;4913696;29;20482;-74
2022/01/13 00:46:21;;;;;;;32.78;16.05;;;;;;;;;;4913717;29;20044;-74
2022/01/13 00:48:51;;;;;;;37.17;17.45;;;;;;;;;;4929331;29;20354;-74
2022/01/13 00:51:18;;;;;;;33.67;16.65;;;;;;;;;;4933266;29;20028;-74
2022/01/13 00:53:44;;;;;;;30.15;16.00;;;;;;;;;;4933187;29;20552;-74
2022/01/13 00:56:10;;;;;;;29.73;15.88;;;;;;;;;;4915225;29;20055;-73
2022/01/13 00:58:37;;;;;;;29.30;16.98;;;;;;;;;;4932035;29;20042;-74
2022/01/13 01:01:05;;;;;;;29.10;16.48;;;;;;;;;;4914766;29;20050;-74
2022/01/13 01:03:31;;;;;;;33.95;17.33;;;;;;;;;;4932822;29;20036;-74
2022/01/13 01:05:57;;;;;;;34.70;17.73;;;;;;;;;;4926030;29;20402;-74
2022/01/13 01:08:24;;;;;;;31.90;17.13;;;;;;;;;;4896267;29;20051;-74
2022/01/13 01:10:53;;;;;;;30.70;17.05;;;;;;;;;;4912800;29;20059;-74
2022/01/13 01:13:25;;;;;;;29.88;16.60;;;;;;;;;;4912288;29;20040;-74
2022/01/13 01:15:54;;;;;;;29.65;16.67;;;;;;;;;;4911847;29;20536;-74
2022/01/13 01:23:57;;;;;;;29.25;15.75;;;;;;;;;;4912911;29;20029;-74
2022/01/13 01:31:44;;;;;;;27.20;15.70;;;;;;;;;;4917899;29;20026;-75
2022/01/13 01:36:36;;;;;;;28.42;15.93;;;;;;;;;;4931673;29;20050;-74
2022/01/13 01:39:04;;;;;;;29.02;15.25;;;;;;;;;;4931694;29;20034;-73
2022/01/13 01:41:30;;;;;;;28.58;16.35;;;;;;;;;;4914159;29;20035;-74
2022/01/13 01:44:01;;;;;;;28.73;16.42;;;;;;;;;;4931855;29;20053;-74
2022/01/13 01:46:27;;;;;;;29.17;17.10;;;;;;;;;;4914424;29;20059;-74
2022/01/13 01:48:53;;;;;;;30.95;17.35;;;;;;;;;;4931240;29;20059;-74
2022/01/13 01:51:18;;;;;;;33.85;17.52;;;;;;;;;;4930396;29;20393;-73
2022/01/13 01:53:44;;;;;;;29.90;16.27;;;;;;;;;;4929601;29;20050;-77
2022/01/13 01:56:10;;;;;;;32.65;16.85;;;;;;;;;;4897333;29;20393;-74
2022/01/13 01:58:38;;;;;;;27.58;15.85;;;;;;;;;;4929989;29;20094;-74
2022/01/13 02:01:04;;;;;;;28.88;16.30;;;;;;;;;;4912662;29;20131;-74
2022/01/13 02:03:30;;;;;;;29.00;15.25;;;;;;;;;;4921311;29;20036;-75
2022/01/13 02:05:56;;;;;;;28.45;16.20;;;;;;;;;;4911814;29;20490;-75
2022/01/13 02:08:22;;;;;;;31.25;16.42;;;;;;;;;;4912512;29;20493;-74
2022/01/13 02:10:48;;;;;;;31.85;17.55;;;;;;;;;;4912377;29;20032;-74
2022/01/13 02:13:21;;;;;;;33.38;17.45;;;;;;;;;;4912611;29;20491;-75
2022/01/13 02:15:59;;;;;;;31.98;16.65;;;;;;;;;;4911936;29;20047;-75
2022/01/13 02:18:29;;;;;;;28.90;16.25;;;;;;;;;;4897426;29;20058;-74
2022/01/13 02:20:55;;;;;;;30.08;16.90;;;;;;;;;;4912240;29;20048;-73
2022/01/13 02:23:35;;;;;;;34.92;17.52;;;;;;;;;;4911997;29;20051;-74
2022/01/13 02:26:02;;;;;;;29.58;16.80;;;;;;;;;;4894849;29;20044;-74
2022/01/13 02:28:29;;;;;;;29.30;15.93;;;;;;;;;;4912513;29;20604;-74
2022/01/13 02:30:55;;;;;;;32.55;17.52;;;;;;;;;;4912310;29;20040;-73
2022/01/13 02:33:21;;;;;;;31.17;16.27;;;;;;;;;;4894871;29;20044;-73
2022/01/13 02:35:47;;;;;;;32.78;17.58;;;;;;;;;;4895037;29;20498;-73
2022/01/13 02:38:13;;;;;;;35.13;17.10;;;;;;;;;;4912117;29;20037;-74
2022/01/13 02:40:40;;;;;;;35.92;18.65;;;;;;;;;;4912202;29;20036;-74
2022/01/13 02:43:06;;;;;;;30.80;17.48;;;;;;;;;;4911140;29;20502;-74
2022/01/13 02:45:35;;;;;;;32.63;17.70;;;;;;;;;;4911914;29;20062;-74
2022/01/13 02:48:27;;;;;;;31.40;18.00;;;;;;;;;;4893886;29;20048;-74
2022/01/13 02:50:54;;;;;;;35.72;18.00;;;;;;;;;;4911233;29;20394;-74
2022/01/13 02:53:21;;;;;;;35.92;17.38;;;;;;;;;;4914367;29;20036;-74
2022/01/13 02:55:47;;;;;;;29.55;16.65;;;;;;;;;;4930302;29;20095;-74
2022/01/13 02:58:15;;;;;;;32.13;16.88;;;;;;;;;;4929926;29;20350;-74
2022/01/13 03:00:41;;;;;;;30.48;17.13;;;;;;;;;;4929827;29;20043;-74
2022/01/13 03:03:07;;;;;;;29.45;16.50;;;;;;;;;;4930585;29;20047;-75
2022/01/13 03:05:38;;;;;;;28.17;16.35;;;;;;;;;;4928855;29;20039;-74
2022/01/13 03:08:08;;;;;;;28.35;16.13;;;;;;;;;;4915162;29;20031;-75
2022/01/13 03:10:35;;;;;;;31.75;16.23;;;;;;;;;;4905154;23;20050;-75
2022/01/13 03:13:02;;;;;;;30.73;16.17;;;;;;;;;;4837150;29;20034;-74
2022/01/13 03:15:27;;;;;;;29.67;16.92;;;;;;;;;;4836607;29;20053;-74
2022/01/13 03:17:53;;;;;;;31.23;16.70;;;;;;;;;;4836866;29;20511;-75
2022/01/13 03:20:19;;;;;;;28.33;16.33;;;;;;;;;;4838282;29;20042;-74
2022/01/13 03:22:45;;;;;;;30.95;15.68;;;;;;;;;;4841623;29;20042;-75
2022/01/13 03:25:13;;;;;;;28.83;15.38;;;;;;;;;;4842887;29;20496;-74
2022/01/13 03:27:40;;;;;;;29.10;15.63;;;;;;;;;;4842584;29;20045;-74
2022/01/13 03:30:09;;;;;;;30.00;15.77;;;;;;;;;;4841174;29;20057;-74
2022/01/13 03:32:36;;;;;;;29.92;15.95;;;;;;;;;;4841428;29;20034;-74
2022/01/13 03:35:04;;;;;;;27.60;14.88;;;;;;;;;;4841027;29;20038;-74
2022/01/13 03:37:30;;;;;;;30.42;16.13;;;;;;;;;;4840819;29;20041;-74
2022/01/13 03:39:59;;;;;;;26.67;15.15;;;;;;;;;;4841341;29;20030;-74
2022/01/13 03:42:25;;;;;;;27.70;15.88;;;;;;;;;;4841561;29;20037;-74
2022/01/13 03:44:51;;;;;;;30.13;15.02;;;;;;;;;;4840220;29;20121;-73
2022/01/13 03:47:17;;;;;;;26.67;15.30;;;;;;;;;;4840872;29;20042;-73
2022/01/13 03:49:43;;;;;;;29.10;15.63;;;;;;;;;;4823606;29;20057;-73
2022/01/13 03:52:24;;;;;;;31.45;16.17;;;;;;;;;;4840249;29;20065;-74
2022/01/13 03:55:27;;;;;;;33.17;17.23;;;;;;;;;;4823587;29;20042;-74
2022/01/13 03:58:10;;;;;;;29.33;15.43;;;;;;;;;;4839159;29;20050;-74
2022/01/13 04:01:09;;;;;;;27.77;16.10;;;;;;;;;;4840235;29;20041;-75
2022/01/13 04:03:36;;;;;;;29.40;15.68;;;;;;;;;;4839645;29;20034;-75
2022/01/13 04:06:14;;;;;;;31.23;16.52;;;;;;;;;;4845909;29;20040;-74
2022/01/13 04:08:40;;;;;;;26.45;15.77;;;;;;;;;;4858224;29;20499;-75
2022/01/13 04:11:06;;;;;;;27.88;15.43;;;;;;;;;;4868134;29;20061;-74
2022/01/13 04:13:46;;;;;;;26.65;15.13;;;;;;;;;;4876512;29;20041;-75
2022/01/13 04:16:14;;;;;;;26.03;15.50;;;;;;;;;;4876084;29;20045;-75
2022/01/13 04:18:40;;;;;;;28.42;14.43;;;;;;;;;;4876235;29;20056;-75
2022/01/13 04:21:06;;;;;;;26.58;15.40;;;;;;;;;;4876421;29;20070;-75
2022/01/13 04:23:32;;;;;;;27.02;15.05;;;;;;;;;;4875956;29;20044;-75
2022/01/13 04:25:59;;;;;;;26.92;13.75;;;;;;;;;;4858614;29;20060;-73
2022/01/13 04:28:29;;;;;;;23.13;13.05;;;;;;;;;;4876011;29;20613;-75
2022/01/13 04:31:01;;;;;;;18.88;11.85;;;;;;;;;;4874499;29;20041;-75
2022/01/13 04:33:31;;;;;;;18.65;11.70;;;;;;;;;;4875173;29;20044;-74
2022/01/13 04:35:58;;;;;;;21.48;12.20;;;;;;;;;;4859168;29;20052;-74
2022/01/13 04:38:25;;;;;;;20.15;10.75;;;;;;;;;;4875845;29;20047;-74
2022/01/13 04:40:59;;;;;;;19.30;11.73;;;;;;;;;;4875977;29;20033;-74
2022/01/13 04:43:28;;;;;;;20.38;10.90;;;;;;;;;;4876062;29;20447;-74
2022/01/13 04:45:54;;;;;;;16.92;9.85;;;;;;;;;;4874645;29;20048;-74
2022/01/13 04:48:20;;;;;;;20.10;9.52;;;;;;;;;;4860273;29;20030;-74
2022/01/13 04:50:46;;;;;;;20.85;11.95;;;;;;;;;;4857132;29;20555;-75
2022/01/13 04:53:13;;;;;;;16.90;9.63;;;;;;;;;;4855278;29;20589;-74
2022/01/13 04:55:48;;;;;;;16.02;8.93;;;;;;;;;;4856087;29;20041;-74
2022/01/13 04:58:14;;;;;;;15.25;8.88;;;;;;;;;;4848361;29;20041;-74
2022/01/13 05:00:40;;;;;;;17.23;8.93;;;;;;;;;;4855586;29;20093;-73
2022/01/13 05:03:06;;;;;;;17.35;9.88;;;;;;;;;;4857456;29;20062;-73
2022/01/13 05:05:32;;;;;;;14.82;8.95;;;;;;;;;;4857401;29;20046;-74
2022/01/13 05:07:58;;;;;;;16.42;10.07;;;;;;;;;;4857111;29;20042;-74
2022/01/13 05:10:27;;;;;;;19.92;9.60;;;;;;;;;;4857227;29;20080;-74
2022/01/13 05:12:56;;;;;;;22.10;10.65;;;;;;;;;;4856727;29;20041;-74
2022/01/13 05:15:25;;;;;;;18.45;9.93;;;;;;;;;;4857551;29;20388;-74
2022/01/13 05:20:29;;;;;;;17.13;9.32;;;;;;;;;;4856749;29;20491;-73
2022/01/13 05:22:55;;;;;;;17.98;9.60;;;;;;;;;;4857091;29;20037;-74
2022/01/13 05:25:21;;;;;;;21.80;11.27;;;;;;;;;;4856670;29;20041;-74
2022/01/13 05:27:48;;;;;;;20.98;11.43;;;;;;;;;;4840307;29;20045;-74
2022/01/13 05:30:17;;;;;;;19.88;11.57;;;;;;;;;;4856283;29;20052;-74
2022/01/13 05:32:43;;;;;;;19.17;11.15;;;;;;;;;;4856890;29;20068;-74
2022/01/13 05:40:13;;;;;;;16.33;8.65;;;;;;;;;;4849440;29;20050;-73
2022/01/13 05:42:40;;;;;;;18.73;11.23;;;;;;;;;;4850514;29;20037;-74
2022/01/13 05:45:14;;;;;;;16.13;9.50;;;;;;;;;;4854420;29;20045;-73
2022/01/13 05:47:42;;;;;;;16.17;9.15;;;;;;;;;;4840289;29;20049;-74
2022/01/13 05:50:10;;;;;;;19.50;10.27;;;;;;;;;;4856616;29;20045;-73
2022/01/13 05:52:36;;;;;;;18.25;9.60;;;;;;;;;;4839998;29;20045;-73
2022/01/13 05:55:03;;;;;;;20.10;12.05;;;;;;;;;;4856218;29;20439;-73
2022/01/13 05:57:30;;;;;;;20.63;10.55;;;;;;;;;;4842133;29;20034;-73
2022/01/13 05:59:56;;;;;;;22.38;12.77;;;;;;;;;;4837625;29;20472;-73
2022/01/13 06:02:22;;;;;;;28.45;13.60;;;;;;;;;;4820737;29;20088;-73
2022/01/13 06:04:48;;;;;;;22.27;12.98;;;;;;;;;;4850076;29;20049;-73
2022/01/13 06:07:13;;;;;;;20.20;11.05;;;;;;;;;;4871101;29;20068;-73
2022/01/13 06:09:39;;;;;;;19.23;10.52;;;;;;;;;;4873145;29;20056;-73
2022/01/13 06:12:06;;;;;;;20.40;11.73;;;;;;;;;;4873249;29;20099;-75
2022/01/13 06:14:32;;;;;;;19.23;11.20;;;;;;;;;;4864052;29;20233;-73
2022/01/13 06:16:57;;;;;;;20.92;11.07;;;;;;;;;;4874014;29;20073;-73
2022/01/13 06:19:23;;;;;;;20.65;10.05;;;;;;;;;;4866218;29;20091;-73
2022/01/13 06:21:49;;;;;;;19.10;11.60;;;;;;;;;;4866525;29;20073;-74
2022/01/13 06:24:15;;;;;;;21.65;12.23;;;;;;;;;;4874419;29;20490;-73
2022/01/13 06:26:41;;;;;;;17.67;10.35;;;;;;;;;;4857205;29;20065;-73
2022/01/13 06:29:07;;;;;;;25.70;13.73;;;;;;;;;;4860506;29;20163;-72
2022/01/13 06:31:33;;;;;;;26.75;14.30;;;;;;;;;;4855692;29;20773;-74
2022/01/13 06:33:59;;;;;;;17.15;9.98;;;;;;;;;;4864405;29;20045;-75
2022/01/13 06:36:25;;;;;;;16.98;10.18;;;;;;;;;;4867752;29;20155;-74
2022/01/13 06:38:51;;;;;;;17.88;11.05;;;;;;;;;;4846816;29;20149;-73
2022/01/13 06:41:18;;;;;;;18.50;10.40;;;;;;;;;;4836695;29;20057;-73
2022/01/13 06:43:44;;;;;;;19.13;10.23;;;;;;;;;;4858372;29;20045;-75
2022/01/13 06:46:11;;;;;;;21.70;11.15;;;;;;;;;;4840346;29;20042;-75
2022/01/13 06:48:37;;;;;;;19.73;11.60;;;;;;;;;;4859348;29;20046;-75
2022/01/13 06:51:03;;;;;;;19.45;10.35;;;;;;;;;;4860636;29;20036;-76
2022/01/13 06:53:29;;;;;;;19.23;10.38;;;;;;;;;;4853620;29;20065;-76
2022/01/13 06:55:55;;;;;;;17.85;10.50;;;;;;;;;;4854317;29;20060;-74
2022/01/13 06:58:21;;;;;;;18.40;10.73;;;;;;;;;;4860938;29;20144;-73
2022/01/13 07:00:47;;;;;;;18.63;10.38;;;;;;;;;;4842681;29;20038;-73
2022/01/13 07:03:13;;;;;;;18.52;9.77;;;;;;;;;;4852600;29;20045;-76
2022/01/13 07:05:39;;;;;;;21.83;11.50;;;;;;;;;;4859527;29;20045;-73
2022/01/13 07:08:08;;;;;;;20.88;12.27;;;;;;;;;;4844384;29;20045;-74
2022/01/13 07:10:34;;;;;;;19.88;11.27;;;;;;;;;;4863994;29;20484;-75
2022/01/13 07:12:59;;;;;;;22.00;13.18;;;;;;;;;;4867214;29;20073;-74
2022/01/13 07:15:28;;;;;;;42.05;20.70;;;;;;;;;;4867772;29;20080;-75
2022/01/13 07:17:54;;;;;;;21.02;11.38;;;;;;;;;;4860799;29;20038;-76
2022/01/13 07:20:20;;;;;;;18.30;11.50;;;;;;;;;;4862806;29;20033;-76
2022/01/13 07:22:46;;;;;;;20.50;11.13;;;;;;;;;;4860381;29;20101;-76
2022/01/13 07:25:12;;;;;;;20.80;12.05;;;;;;;;;;4859036;29;20058;-76
2022/01/13 07:27:40;;;;;;;23.80;12.45;;;;;;;;;;4859337;29;20025;-75
2022/01/13 07:30:06;;;;;;;22.95;12.05;;;;;;;;;;4860611;29;20037;-76
2022/01/13 07:32:32;;;;;;;22.40;12.77;;;;;;;;;;4861656;29;20032;-74
2022/01/13 07:34:58;;;;;;;25.70;15.60;;;;;;;;;;4872905;29;20064;-77
2022/01/13 07:37:24;;;;;;;42.88;24.00;;;;;;;;;;4858887;29;20036;-75
2022/01/13 07:39:50;;;;;;;31.77;17.52;;;;;;;;;;4858233;29;20498;-75
2022/01/13 07:42:16;;;;;;;25.30;12.60;;;;;;;;;;4841657;29;20050;-76
2022/01/13 07:44:42;;;;;;;24.13;12.85;;;;;;;;;;4861606;29;20021;-76
2022/01/13 07:47:08;;;;;;;22.38;13.55;;;;;;;;;;4875792;29;20052;-75
2022/01/13 07:49:37;;;;;;;25.55;13.40;;;;;;;;;;4865371;29;20064;-77
2022/01/13 07:52:03;;;;;;;28.00;15.40;;;;;;;;;;4867680;29;20396;-77
2022/01/13 07:54:31;;;;;;;26.77;14.95;;;;;;;;;;4873327;29;20049;-76
2022/01/13 07:56:58;;;;;;;26.80;15.05;;;;;;;;;;4846232;29;20536;-77
2022/01/13 07:59:29;;;;;;;29.50;14.93;;;;;;;;;;4873829;29;20479;-76
2022/01/13 08:01:55;;;;;;;28.92;15.90;;;;;;;;;;4864603;29;20767;-76
2022/01/13 08:04:21;;;;;;;26.67;14.05;;;;;;;;;;4849721;29;20053;-76
2022/01/13 08:06:48;;;;;;;28.50;15.40;;;;;;;;;;4858340;29;20057;-77
2022/01/13 08:09:14;;;;;;;27.80;15.02;;;;;;;;;;4873048;29;20041;-80
2022/01/13 08:11:40;;;;;;;30.90;16.02;;;;;;;;;;4846202;29;20475;-78
2022/01/13 08:14:06;;;;;;;24.88;15.15;;;;;;;;;;4849563;29;20109;-77
2022/01/13 08:16:35;;;;;;;31.67;18.45;;;;;;;;;;4857688;29;20122;-77
2022/01/13 08:21:46;;;;;;;33.30;17.63;;;;;;;;;;4860687;29;20059;-77
2022/01/13 08:24:12;;;;;;;28.90;15.70;;;;;;;;;;4841061;29;20052;-78
2022/01/13 08:26:39;;;;;;;28.55;15.77;;;;;;;;;;4857943;29;20033;-76
2022/01/13 08:29:05;;;;;;;26.13;15.35;;;;;;;;;;4857781;29;20037;-76
2022/01/13 08:31:31;;;;;;;27.27;14.57;;;;;;;;;;4857946;29;20068;-77
2022/01/13 08:33:57;;;;;;;29.20;16.10;;;;;;;;;;4857320;29;20464;-79
2022/01/13 08:36:23;;;;;;;27.73;15.20;;;;;;;;;;4840780;29;20058;-78
2022/01/13 08:38:49;;;;;;;24.42;13.90;;;;;;;;;;4826986;29;20050;-78
2022/01/13 08:41:16;;;;;;;26.00;14.65;;;;;;;;;;4855360;29;20030;-76
2022/01/13 08:43:42;;;;;;;24.35;13.82;;;;;;;;;;4858064;29;20036;-77
2022/01/13 08:46:08;;;;;;;26.20;14.43;;;;;;;;;;4841294;29;20484;-76
2022/01/13 08:48:35;;;;;;;28.98;14.98;;;;;;;;;;4840892;29;20057;-77
2022/01/13 08:51:03;;;;;;;25.90;14.90;;;;;;;;;;4857104;29;20053;-77
2022/01/13 08:53:28;;;;;;;25.17;14.38;;;;;;;;;;4856516;29;20034;-78
2022/01/13 08:55:55;;;;;;;23.00;14.27;;;;;;;;;;4859365;29;20032;-78
2022/01/13 08:58:25;;;;;;;27.15;14.32;;;;;;;;;;4857479;29;20601;-78
2022/01/13 09:00:53;;;;;;;24.77;13.85;;;;;;;;;;4858420;29;20041;-78
2022/01/13 09:03:19;;;;;;;24.95;13.43;;;;;;;;;;4857852;29;20480;-78
2022/01/13 09:05:45;;;;;;;26.88;14.63;;;;;;;;;;4865697;29;20041;-78
2022/01/13 09:08:12;;;;;;;24.35;13.70;;;;;;;;;;4872286;29;20068;-77
2022/01/13 09:10:40;;;;;;;25.30;14.43;;;;;;;;;;4854230;29;20045;-77
2022/01/13 09:13:12;;;;;;;25.38;14.55;;;;;;;;;;4846563;29;20037;-77
2022/01/13 09:15:44;;;;;;;29.38;14.65;;;;;;;;;;4869518;29;20056;-76
2022/01/13 09:18:19;;;;;;;26.20;14.25;;;;;;;;;;4875484;29;20029;-77
2022/01/13 09:20:46;;;;;;;26.65;14.52;;;;;;;;;;4856802;29;20040;-76
2022/01/13 09:23:13;;;;;;;27.08;14.32;;;;;;;;;;4865250;29;20030;-77
2022/01/13 09:25:39;;;;;;;25.15;14.25;;;;;;;;;;4855576;29;20570;-76
2022/01/13 09:28:07;;;;;;;23.50;13.52;;;;;;;;;;4856294;29;20040;-77
2022/01/13 09:30:34;;;;;;;24.90;13.30;;;;;;;;;;4838753;29;20045;-77
2022/01/13 09:42:33;;;;;;;18.95;10.00;;;;;;;;;;4898583;23;20060;-76
2022/01/13 09:45:07;;;;;;;23.48;13.85;;;;;;;;;;4888511;29;20052;-76
2022/01/13 09:47:35;;;;;;;35.00;19.70;;;;;;;;;;4871516;29;20047;-76
2022/01/13 09:50:04;;;;;;;18.80;10.77;;;;;;;;;;4893269;29;20052;-76
2022/01/13 09:52:30;;;;;;;21.23;11.93;;;;;;;;;;4893458;29;20020;-75
2022/01/13 09:54:56;;;;;;;22.02;12.65;;;;;;;;;;4869650;29;20045;-76
2022/01/13 09:57:22;;;;;;;20.42;12.07;;;;;;;;;;4892232;29;20095;-77
2022/01/13 09:59:48;;;;;;;24.08;12.70;;;;;;;;;;4892821;29;20067;-77
2022/01/13 10:02:14;;;;;;;25.05;13.57;;;;;;;;;;4893227;29;20490;-77
2022/01/13 10:04:49;;;;;;;23.13;12.55;;;;;;;;;;4875116;29;20051;-76
2022/01/13 10:07:30;;;;;;;19.38;11.07;;;;;;;;;;4892627;29;20190;-75
2022/01/13 10:09:59;;;;;;;21.63;11.52;;;;;;;;;;4891755;29;20045;-76
2022/01/13 10:12:36;;;;;;;19.98;10.50;;;;;;;;;;4874110;29;20103;-77
2022/01/13 10:17:51;;;;;;;20.02;11.38;;;;;;;;;;4893593;29;20045;-77
2022/01/13 10:20:20;;;;;;;22.13;12.02;;;;;;;;;;4892558;29;20048;-77
2022/01/13 10:22:47;;;;;;;21.67;11.95;;;;;;;;;;4890959;29;20029;-77
2022/01/13 10:25:30;;;;;;;22.45;11.98;;;;;;;;;;4891902;29;20040;-77
2022/01/13 10:28:10;;;;;;;21.05;11.27;;;;;;;;;;4886857;29;20029;-77
2022/01/13 10:30:37;;;;;;;21.60;11.90;;;;;;;;;;4893277;29;20463;-76
2022/01/13 10:33:14;;;;;;;23.20;12.25;;;;;;;;;;4896701;29;20085;-76
2022/01/13 10:35:40;;;;;;;20.63;12.35;;;;;;;;;;4893693;29;20041;-77
2022/01/13 10:38:06;;;;;;;23.58;13.73;;;;;;;;;;4879389;29;20533;-77
2022/01/13 10:40:39;;;;;;;20.83;12.15;;;;;;;;;;4897360;29;20047;-77
2022/01/13 10:43:06;;;;;;;29.92;15.15;;;;;;;;;;4893323;29;20056;-77
2022/01/13 10:45:40;;;;;;;21.35;12.65;;;;;;;;;;4863842;29;20064;-76
2022/01/13 10:48:24;;;;;;;21.00;12.52;;;;;;;;;;4881937;29;20032;-77
2022/01/13 10:50:50;;;;;;;25.27;13.60;;;;;;;;;;4879583;29;20040;-77
2022/01/13 10:53:26;;;;;;;22.90;12.15;;;;;;;;;;4883680;29;20040;-75
2022/01/13 10:55:59;;;;;;;22.88;12.80;;;;;;;;;;4894955;29;20106;-75
2022/01/13 10:58:29;;;;;;;22.52;13.23;;;;;;;;;;4890539;29;20032;-76
2022/01/13 11:00:57;;;;;;;21.42;12.02;;;;;;;;;;4885741;29;20044;-76
2022/01/13 11:03:25;;;;;;;23.90;13.25;;;;;;;;;;4865076;29;20059;-75
2022/01/13 11:05:56;;;;;;;22.10;12.02;;;;;;;;;;4881019;29;20028;-76
2022/01/13 11:08:39;;;;;;;41.55;21.15;;;;;;;;;;4883586;29;20040;-76
2022/01/13 11:11:05;;;;;;;27.45;13.10;;;;;;;;;;4882494;29;20502;-76
2022/01/13 11:13:38;;;;;;;21.55;12.43;;;;;;;;;;4896743;29;20067;-76
2022/01/13 11:16:04;;;;;;;21.95;12.73;;;;;;;;;;4896429;29;20081;-75
2022/01/13 11:18:31;;;;;;;21.45;12.45;;;;;;;;;;4897029;29;20041;-75
2022/01/13 11:20:59;;;;;;;22.88;11.07;;;;;;;;;;4896591;29;20052;-76
2022/01/13 11:23:25;;;;;;;24.30;13.85;;;;;;;;;;4896599;29;20103;-76
2022/01/13 11:25:54;;;;;;;24.92;13.63;;;;;;;;;;4877452;29;20336;-76
2022/01/13 11:28:21;;;;;;;24.17;13.07;;;;;;;;;;4880960;29;20048;-76
2022/01/13 11:30:49;;;;;;;24.95;12.18;;;;;;;;;;4879318;29;20498;-76
2022/01/13 11:33:20;;;;;;;24.42;12.15;;;;;;;;;;4872064;29;20045;-76
2022/01/13 11:35:55;;;;;;;25.58;14.15;;;;;;;;;;4887502;29;20059;-76
2022/01/13 11:38:22;;;;;;;25.33;13.02;;;;;;;;;;4882814;29;20025;-76
2022/01/13 11:40:51;;;;;;;24.67;14.10;;;;;;;;;;4891743;29;20044;-76
2022/01/13 11:43:38;;;;;;;26.15;14.38;;;;;;;;;;4880048;29;20514;-76
2022/01/13 11:46:31;;;;;;;25.13;14.25;;;;;;;;;;4897519;29;20103;-76
2022/01/13 11:49:05;;;;;;;28.98;14.55;;;;;;;;;;4903465;29;20048;-76
2022/01/13 11:51:45;;;;;;;27.85;14.55;;;;;;;;;;4913819;29;20040;-76
2022/01/13 11:54:23;;;;;;;24.90;14.15;;;;;;;;;;4911872;29;20481;-77
2022/01/13 11:57:14;;;;;;;26.00;14.23;;;;;;;;;;4909937;29;20247;-75
2022/01/13 11:59:52;;;;;;;25.80;14.48;;;;;;;;;;4913254;29;20048;-75
2022/01/13 12:02:29;;;;;;;22.38;13.68;;;;;;;;;;4889198;29;20052;-75
2022/01/13 12:05:14;;;;;;;26.92;15.00;;;;;;;;;;4908304;29;20513;-76
2022/01/13 12:07:44;;;;;;;26.83;14.60;;;;;;;;;;4893959;29;20510;-76
2022/01/13 12:10:37;;;;;;;24.75;13.73;;;;;;;;;;4896775;29;20329;-74
2022/01/13 12:13:43;;;;;;;21.45;13.52;;;;;;;;;;4912753;29;20032;-76
2022/01/13 12:16:10;;;;;;;23.17;12.13;;;;;;;;;;4903742;29;20490;-76
2022/01/13 12:19:13;;;;;;;22.92;13.23;;;;;;;;;;4915259;29;20060;-77
2022/01/13 12:21:50;;;;;;;22.05;12.30;;;;;;;;;;4903878;29;20043;-77
2022/01/13 12:24:54;;;;;;;21.27;12.18;;;;;;;;;;4907010;29;20048;-76
2022/01/13 12:27:22;;;;;;;20.65;12.07;;;;;;;;;;4910678;29;20047;-77
2022/01/13 12:30:10;;;;;;;20.58;11.63;;;;;;;;;;4899586;29;20028;-76
2022/01/13 12:32:47;;;;;;;22.73;13.38;;;;;;;;;;4911788;29;20044;-78
2022/01/13 12:35:34;;;;;;;23.20;12.88;;;;;;;;;;4895005;29;20047;-77
2022/01/13 12:38:21;;;;;;;25.60;14.18;;;;;;;;;;4905711;29;20036;-77
2022/01/13 12:41:15;;;;;;;26.42;14.05;;;;;;;;;;4904338;29;20047;-76
2022/01/13 12:46:14;;;;;;;28.55;15.13;;;;;;;;;;4903424;29;20036;-77
2022/01/13 12:48:42;;;;;;;27.63;15.52;;;;;;;;;;4899372;29;20040;-73
2022/01/13 12:51:20;;;;;;;28.20;13.98;;;;;;;;;;4888032;29;20205;-74
2022/01/13 12:53:48;;;;;;;24.60;13.82;;;;;;;;;;4897013;29;20040;-75
2022/01/13 12:56:17;;;;;;;23.42;13.10;;;;;;;;;;4880291;29;20048;-76
2022/01/13 12:58:57;;;;;;;22.83;13.60;;;;;;;;;;4908651;29;20051;-76
2022/01/13 13:01:27;;;;;;;25.27;13.52;;;;;;;;;;4907353;29;20486;-76
2022/01/13 13:04:09;;;;;;;27.60;14.90;;;;;;;;;;4910286;29;20371;-77
2022/01/13 13:06:36;;;;;;;;;;;;;;;;;;4892236;29;20036;-77
2022/01/13 13:09:09;;;;;;;27.80;14.07;;;;;;;;;;4909924;29;19919;-77
2022/01/13 13:11:43;;;;;;;27.10;13.57;;;;;;;;;;4894476;29;20044;-75
2022/01/13 13:14:18;;;;;;;26.63;14.75;;;;;;;;;;4889927;29;20048;-77
2022/01/13 13:16:46;;;;;;;31.77;15.88;;;;;;;;;;4910137;29;20028;-78
2022/01/13 13:19:12;;;;;;;30.73;15.65;;;;;;;;;;4886953;29;20040;-81
2022/01/13 13:21:39;;;;;;;30.02;15.07;;;;;;;;;;4911616;29;20028;-77
2022/01/13 13:24:05;;;;;;;28.85;14.38;;;;;;;;;;4898471;29;20870;-78
2022/01/13 13:26:31;;;;;;;31.63;15.25;;;;;;;;;;4892412;29;20052;-79
2022/01/13 13:28:58;;;;;;;30.55;16.40;;;;;;;;;;4885639;29;20506;-78
2022/01/13 13:31:30;;;;;;;27.17;15.75;;;;;;;;;;4891989;29;20390;-75
2022/01/13 13:33:56;;;;;;;26.33;14.63;;;;;;;;;;4908533;29;20048;-76
2022/01/13 13:36:37;;;;;;;27.20;15.52;;;;;;;;;;4891586;29;20129;-75
2022/01/13 13:39:10;;;;;;;30.13;16.00;;;;;;;;;;4901641;29;20206;-73
2022/01/13 13:41:40;;;;;;;33.75;15.20;;;;;;;;;;4912030;29;20047;-73
2022/01/13 13:44:08;;;;;;;31.77;16.00;;;;;;;;;;4908213;29;20028;-74
2022/01/13 13:46:36;;;;;;;30.90;15.35;;;;;;;;;;4909363;29;20335;-74
2022/01/13 13:49:03;;;;;;;30.63;15.27;;;;;;;;;;4880206;29;20040;-74
2022/01/13 13:51:31;;;;;;;27.45;14.65;;;;;;;;;;4892375;29;20040;-75
2022/01/13 13:54:13;;;;;;;26.58;15.07;;;;;;;;;;4903194;29;20383;-75
2022/01/13 13:57:01;;;;;;;25.50;14.18;;;;;;;;;;4902647;29;20028;-77
2022/01/13 13:59:34;;;;;;;28.27;14.80;;;;;;;;;;4905042;29;20035;-76
2022/01/13 14:02:12;;;;;;;27.70;15.02;;;;;;;;;;4901580;29;20579;-73
2022/01/13 14:04:39;;;;;;;32.50;14.70;;;;;;;;;;4895903;29;20028;-74
2022/01/13 14:07:24;;;;;;;31.80;15.30;;;;;;;;;;4903852;29;20033;-74
2022/01/13 14:10:00;;;;;;;30.08;15.55;;;;;;;;;;4904876;29;20758;-74
2022/01/13 14:12:46;;;;;;;28.73;15.05;;;;;;;;;;4909006;29;20035;-74
2022/01/13 14:15:18;;;;;;;30.88;16.05;;;;;;;;;;4901613;29;20040;-75
2022/01/13 14:17:47;;;;;;;28.75;15.75;;;;;;;;;;4908889;29;20666;-75
2022/01/13 14:20:16;;;;;;;28.00;15.88;;;;;;;;;;4909121;29;20482;-75
2022/01/13 14:22:42;;;;;;;31.17;15.50;;;;;;;;;;4896925;29;20044;-76
2022/01/13 14:25:10;;;;;;;32.13;15.88;;;;;;;;;;4910794;29;20059;-76
2022/01/13 14:27:49;;;;;;;29.63;15.57;;;;;;;;;;4909920;29;20044;-77
2022/01/13 14:30:28;;;;;;;30.08;15.35;;;;;;;;;;4910206;29;20047;-75
2022/01/13 14:33:18;;;;;;;35.28;15.98;;;;;;;;;;4910492;29;20032;-76
2022/01/13 14:36:00;;;;;;;29.40;15.30;;;;;;;;;;4908503;29;20470;-75
2022/01/13 14:38:36;;;;;;;30.55;16.63;;;;;;;;;;4904213;29;20055;-75
2022/01/13 14:41:02;;;;;;;47.92;23.08;;;;;;;;;;4893491;29;20040;-78
2022/01/13 14:43:28;;;;;;;34.85;17.55;;;;;;;;;;4894328;29;20040;-86
2022/01/13 14:46:12;;;;;;;33.45;15.65;;;;;;;;;;4891611;29;20045;-75
2022/01/13 14:48:43;;;;;;;34.28;16.95;;;;;;;;;;4908286;29;20047;-73
2022/01/13 14:51:14;;;;;;;38.55;17.13;;;;;;;;;;4899148;29;20529;-72
2022/01/13 14:53:41;;;;;;;36.47;18.38;;;;;;;;;;4900880;29;20052;-75
2022/01/13 14:56:09;;;;;;;37.85;17.45;;;;;;;;;;4897833;29;20028;-75
2022/01/13 14:58:36;;;;;;;36.67;18.55;;;;;;;;;;4907279;29;20043;-74
2022/01/13 15:01:50;;;;;;;36.28;18.17;;;;;;;;;;4902218;29;20048;-76
2022/01/13 15:08:13;;;;;;;34.53;17.13;;;;;;;;;;4849519;23;20049;31
2022/01/13 15:16:37;;;;;;;37.88;18.30;;;;;;;;;;5008438;23;20436;-75
2022/01/13 15:19:07;;;;;;;45.78;19.55;;;;;;;;;;4931725;29;20047;-77
2022/01/13 15:21:33;;;;;;;37.73;18.33;;;;;;;;;;4933570;29;20032;-74
2022/01/13 15:24:00;;;;;;;41.35;18.67;;;;;;;;;;4934285;29;20111;-75
2022/01/13 15:26:27;;;;;;;43.22;17.98;;;;;;;;;;4915730;29;20047;-74